Time;durP1;ratioP1;P1;durP2;ratioP2;P2;SDS_P1;SDS_P2;PMS_P1;PMS_P2;Temp;Humidity;BMP_temperature;BMP_pressure;BME280_temperature;BME280_humidity;BME280_pressure;Samples;Min_cycle;Max_cycle;Signal;HPM_P1;HPM_P2
2023/07/20 00:01:35;;;;;;;5.27;3.53;;;;;;;;;;5034062;28;20533;-53
2023/07/20 00:04:02;;;;;;;4.70;3.30;;;;;;;;;;5046228;28;20524;-54
2023/07/20 00:06:30;;;;;;;4.17;3.50;;;;;;;;;;5051283;28;20887;-54
2023/07/20 00:08:58;;;;;;;4.77;3.83;;;;;;;;;;5039997;28;20481;-55
2023/07/20 00:11:28;;;;;;;4.03;3.30;;;;;;;;;;5041842;28;20952;-54
2023/07/20 00:13:55;;;;;;;4.30;3.43;;;;;;;;;;5052003;28;20437;-54
2023/07/20 00:16:22;;;;;;;5.80;3.80;;;;;;;;;;5052057;28;20465;-54
2023/07/20 00:18:50;;;;;;;4.60;3.63;;;;;;;;;;5052374;28;20524;-54
2023/07/20 00:21:17;;;;;;;6.50;3.50;;;;;;;;;;5049250;28;20532;-54
2023/07/20 00:23:45;;;;;;;5.97;3.37;;;;;;;;;;5033516;28;20474;-54
2023/07/20 00:26:13;;;;;;;5.50;3.80;;;;;;;;;;5044906;28;20529;-53
2023/07/20 00:28:40;;;;;;;4.97;3.60;;;;;;;;;;5050931;28;20445;-54
2023/07/20 00:31:07;;;;;;;4.17;3.20;;;;;;;;;;5033075;28;20469;-53
2023/07/20 00:33:34;;;;;;;6.07;4.30;;;;;;;;;;5040322;28;20499;-54
2023/07/20 00:36:02;;;;;;;6.17;4.47;;;;;;;;;;5052536;28;20473;-54
2023/07/20 00:38:29;;;;;;;6.87;4.20;;;;;;;;;;5039794;28;20750;-54
2023/07/20 00:40:58;;;;;;;5.10;4.37;;;;;;;;;;5037799;28;20480;-54
2023/07/20 00:43:25;;;;;;;5.80;4.00;;;;;;;;;;5034100;28;20450;-54
2023/07/20 00:45:52;;;;;;;4.90;3.77;;;;;;;;;;5052369;28;20496;-53
2023/07/20 00:48:20;;;;;;;6.47;4.17;;;;;;;;;;5052238;28;20880;-54
2023/07/20 00:50:48;;;;;;;4.87;4.27;;;;;;;;;;5039866;28;20542;-54
2023/07/20 00:53:16;;;;;;;6.60;4.23;;;;;;;;;;5046994;28;20445;-54
2023/07/20 00:55:44;;;;;;;6.23;3.90;;;;;;;;;;5052099;28;20526;-53
2023/07/20 00:58:12;;;;;;;5.77;4.50;;;;;;;;;;5043401;28;20471;-53
2023/07/20 01:00:39;;;;;;;5.33;4.50;;;;;;;;;;5048523;28;20495;-53
2023/07/20 01:03:07;;;;;;;5.20;4.10;;;;;;;;;;5050726;28;20524;-53
2023/07/20 01:05:37;;;;;;;5.00;3.90;;;;;;;;;;5050673;28;20528;-53
2023/07/20 01:08:09;;;;;;;4.67;4.27;;;;;;;;;;5033775;28;20470;-53
2023/07/20 01:10:41;;;;;;;6.23;4.30;;;;;;;;;;5045156;28;20469;-53
2023/07/20 01:13:09;;;;;;;4.90;3.63;;;;;;;;;;5032410;28;20477;-54
2023/07/20 01:15:38;;;;;;;5.00;4.23;;;;;;;;;;5034779;28;20476;-53
2023/07/20 01:18:05;;;;;;;8.00;4.00;;;;;;;;;;5042377;28;20481;-54
2023/07/20 01:20:33;;;;;;;7.33;4.00;;;;;;;;;;5038018;28;20804;-54
2023/07/20 01:23:07;;;;;;;5.67;4.67;;;;;;;;;;5048718;28;20452;-54
2023/07/20 01:25:43;;;;;;;7.10;4.43;;;;;;;;;;5049893;28;20507;-54
2023/07/20 01:28:31;;;;;;;5.70;3.90;;;;;;;;;;5043198;28;20570;-54
2023/07/20 01:31:05;;;;;;;10.50;4.67;;;;;;;;;;5025018;28;20520;-54
2023/07/20 01:33:35;;;;;;;5.53;4.07;;;;;;;;;;5048629;28;20480;-53
2023/07/20 01:36:02;;;;;;;6.00;4.57;;;;;;;;;;5031473;28;20441;-53
2023/07/20 01:38:30;;;;;;;5.43;4.17;;;;;;;;;;5035393;28;20524;-53
2023/07/20 01:40:57;;;;;;;5.10;4.20;;;;;;;;;;5045827;28;20509;-54
2023/07/20 01:43:25;;;;;;;7.40;4.70;;;;;;;;;;5032799;28;20821;-53
2023/07/20 01:45:52;;;;;;;7.60;4.87;;;;;;;;;;5042065;28;20884;-53
2023/07/20 01:48:19;;;;;;;4.33;3.90;;;;;;;;;;5043388;28;20531;-54
2023/07/20 01:50:48;;;;;;;5.67;4.40;;;;;;;;;;5034840;28;21038;-54
2023/07/20 01:53:15;;;;;;;6.47;4.63;;;;;;;;;;5041385;28;20476;-54
2023/07/20 01:55:42;;;;;;;4.73;3.73;;;;;;;;;;5031264;28;20442;-54
2023/07/20 01:58:09;;;;;;;5.03;4.10;;;;;;;;;;5045182;28;20552;-54
2023/07/20 02:00:38;;;;;;;5.43;4.63;;;;;;;;;;5038276;28;20516;-54
2023/07/20 02:03:06;;;;;;;4.87;3.67;;;;;;;;;;5050810;28;20441;-54
2023/07/20 02:05:33;;;;;;;4.13;3.67;;;;;;;;;;5045093;28;20533;-54
2023/07/20 02:08:01;;;;;;;7.53;4.70;;;;;;;;;;5044813;28;20505;-54
2023/07/20 02:10:29;;;;;;;4.73;3.60;;;;;;;;;;5045140;28;20529;-54
2023/07/20 02:12:56;;;;;;;6.90;4.83;;;;;;;;;;5035540;28;20454;-55
2023/07/20 02:15:23;;;;;;;5.40;3.77;;;;;;;;;;5046602;28;20445;-54
2023/07/20 02:17:51;;;;;;;5.30;4.10;;;;;;;;;;5047132;28;20981;-53
2023/07/20 02:20:19;;;;;;;5.23;4.60;;;;;;;;;;5050815;28;20480;-54
2023/07/20 02:22:46;;;;;;;7.20;4.83;;;;;;;;;;5050387;28;20495;-53
2023/07/20 02:25:15;;;;;;;6.47;4.50;;;;;;;;;;5035787;28;20525;-54
2023/07/20 02:27:42;;;;;;;6.00;3.70;;;;;;;;;;5030940;28;20462;-54
2023/07/20 02:30:10;;;;;;;4.37;3.93;;;;;;;;;;5046217;28;20473;-54
2023/07/20 02:32:38;;;;;;;5.10;3.87;;;;;;;;;;5048977;28;20807;-53
2023/07/20 02:35:06;;;;;;;4.70;3.90;;;;;;;;;;5043673;28;20538;-54
2023/07/20 02:37:33;;;;;;;5.43;3.73;;;;;;;;;;5035358;28;20506;-54
2023/07/20 02:40:00;;;;;;;5.03;4.20;;;;;;;;;;5037002;28;20448;-53
2023/07/20 02:42:29;;;;;;;6.47;4.00;;;;;;;;;;5043662;28;20445;-53
2023/07/20 02:44:57;;;;;;;8.20;3.60;;;;;;;;;;5044459;28;20532;-53
2023/07/20 02:47:24;;;;;;;5.00;4.50;;;;;;;;;;5050511;28;20552;-54
2023/07/20 02:49:51;;;;;;;5.83;4.30;;;;;;;;;;5031904;28;20459;-54
2023/07/20 02:52:18;;;;;;;7.30;3.90;;;;;;;;;;5030137;28;20537;-54
2023/07/20 02:54:45;;;;;;;6.33;4.20;;;;;;;;;;5037803;28;20493;-54
2023/07/20 02:57:13;;;;;;;12.30;4.53;;;;;;;;;;5042551;28;20559;-54
2023/07/20 02:59:41;;;;;;;5.60;4.13;;;;;;;;;;5049448;28;20530;-54
2023/07/20 03:02:10;;;;;;;5.50;4.30;;;;;;;;;;5048822;28;20560;-54
2023/07/20 03:04:38;;;;;;;6.30;4.43;;;;;;;;;;5047249;28;20481;-54
2023/07/20 03:07:06;;;;;;;5.27;4.30;;;;;;;;;;5048976;28;20991;-53
2023/07/20 03:09:34;;;;;;;6.23;4.27;;;;;;;;;;5041285;28;20450;-54
2023/07/20 03:12:02;;;;;;;8.27;5.20;;;;;;;;;;5039997;28;20450;-53
2023/07/20 03:14:29;;;;;;;6.17;4.47;;;;;;;;;;5039956;28;20449;-54
2023/07/20 03:16:57;;;;;;;5.20;3.90;;;;;;;;;;5039922;28;20568;-53
2023/07/20 03:19:25;;;;;;;6.13;4.20;;;;;;;;;;5043239;28;20469;-53
2023/07/20 03:21:52;;;;;;;5.27;4.47;;;;;;;;;;5049839;28;20528;-53
2023/07/20 03:24:19;;;;;;;5.90;4.40;;;;;;;;;;5039940;28;20474;-54
2023/07/20 03:26:46;;;;;;;6.00;4.90;;;;;;;;;;5045317;28;20466;-53
2023/07/20 03:29:16;;;;;;;5.33;4.40;;;;;;;;;;5048766;28;20536;-53
2023/07/20 03:31:43;;;;;;;8.00;4.50;;;;;;;;;;5049697;28;20441;-53
2023/07/20 03:34:11;;;;;;;4.83;3.73;;;;;;;;;;5039733;28;20532;-54
2023/07/20 03:36:39;;;;;;;4.40;3.90;;;;;;;;;;5047217;28;20489;-54
2023/07/20 03:39:06;;;;;;;7.10;4.40;;;;;;;;;;5050156;28;20852;-53
2023/07/20 03:41:33;;;;;;;5.30;4.60;;;;;;;;;;5049775;28;20484;-55
2023/07/20 03:44:00;;;;;;;4.43;3.90;;;;;;;;;;5041144;28;20521;-53
2023/07/20 03:46:27;;;;;;;4.73;3.80;;;;;;;;;;5041045;28;20489;-55
2023/07/20 03:48:55;;;;;;;4.13;3.43;;;;;;;;;;5041052;28;20507;-54
2023/07/20 03:51:23;;;;;;;5.10;3.93;;;;;;;;;;5047581;28;20476;-53
2023/07/20 03:53:51;;;;;;;3.70;3.30;;;;;;;;;;5035727;28;20467;-54
2023/07/20 03:56:18;;;;;;;5.33;3.90;;;;;;;;;;5049194;28;20484;-55
2023/07/20 03:58:45;;;;;;;6.80;4.03;;;;;;;;;;5036594;28;20478;-54
2023/07/20 04:01:13;;;;;;;5.27;4.00;;;;;;;;;;5048180;28;20943;-54
2023/07/20 04:03:40;;;;;;;6.37;4.43;;;;;;;;;;5046060;28;20469;-53
2023/07/20 04:06:08;;;;;;;8.23;4.40;;;;;;;;;;5041454;28;20469;-54
2023/07/20 04:08:37;;;;;;;4.17;3.77;;;;;;;;;;5052534;28;20453;-53
2023/07/20 04:11:04;;;;;;;6.63;4.40;;;;;;;;;;5052942;28;20491;-53
2023/07/20 04:13:33;;;;;;;6.50;5.03;;;;;;;;;;5051062;28;20548;-53
2023/07/20 04:16:00;;;;;;;5.20;4.37;;;;;;;;;;5051919;28;20464;-54
2023/07/20 04:18:27;;;;;;;6.87;4.80;;;;;;;;;;5035045;28;20578;-54
2023/07/20 04:20:55;;;;;;;7.03;4.50;;;;;;;;;;5032320;28;20450;-53
2023/07/20 04:23:22;;;;;;;6.70;4.30;;;;;;;;;;5032096;28;20948;-54
2023/07/20 04:25:50;;;;;;;6.20;3.87;;;;;;;;;;5031997;28;20450;-54
2023/07/20 04:28:19;;;;;;;4.97;4.20;;;;;;;;;;5038597;28;20456;-54
2023/07/20 04:30:46;;;;;;;7.70;5.00;;;;;;;;;;5052722;28;20527;-54
2023/07/20 04:33:13;;;;;;;5.30;4.03;;;;;;;;;;5050382;28;20993;-54
2023/07/20 04:35:47;;;;;;;6.03;4.17;;;;;;;;;;5046836;28;20869;-55
2023/07/20 04:38:17;;;;;;;5.97;4.83;;;;;;;;;;5042158;28;20523;-54
2023/07/20 04:40:44;;;;;;;5.40;4.90;;;;;;;;;;5048858;28;20459;-53
2023/07/20 04:43:13;;;;;;;6.30;5.00;;;;;;;;;;5035237;28;20550;-54
2023/07/20 04:45:40;;;;;;;7.27;4.53;;;;;;;;;;5037939;28;20446;-54
2023/07/20 04:48:11;;;;;;;6.47;4.80;;;;;;;;;;5052454;28;20518;-54
2023/07/20 04:50:38;;;;;;;6.50;4.93;;;;;;;;;;5050310;28;20453;-54
2023/07/20 04:53:05;;;;;;;7.20;5.03;;;;;;;;;;5044444;28;20477;-54
2023/07/20 04:55:33;;;;;;;5.47;4.97;;;;;;;;;;5052311;28;20590;-54
2023/07/20 04:58:01;;;;;;;6.60;5.10;;;;;;;;;;5046785;28;20477;-54
2023/07/20 05:00:29;;;;;;;8.67;4.93;;;;;;;;;;5042571;28;20870;-54
2023/07/20 05:02:56;;;;;;;9.53;5.63;;;;;;;;;;5033052;28;20542;-53
2023/07/20 05:05:24;;;;;;;7.10;5.27;;;;;;;;;;5035679;28;20522;-54
2023/07/20 05:07:51;;;;;;;7.50;4.80;;;;;;;;;;5044070;28;20556;-54
2023/07/20 05:10:19;;;;;;;9.47;5.70;;;;;;;;;;5043100;28;20447;-54
2023/07/20 05:12:46;;;;;;;7.07;5.27;;;;;;;;;;5032790;28;20530;-54
2023/07/20 05:15:13;;;;;;;6.37;4.80;;;;;;;;;;5045870;28;20480;-54
2023/07/20 05:17:42;;;;;;;5.30;4.67;;;;;;;;;;5042109;28;20553;-54
2023/07/20 05:20:12;;;;;;;6.13;5.40;;;;;;;;;;5032158;28;20522;-54
2023/07/20 05:22:39;;;;;;;7.70;5.13;;;;;;;;;;5040913;28;20959;-53
2023/07/20 05:25:08;;;;;;;6.73;5.30;;;;;;;;;;5041288;28;20441;-54
2023/07/20 05:27:35;;;;;;;5.90;5.30;;;;;;;;;;5041567;28;20454;-53
2023/07/20 05:30:03;;;;;;;8.93;4.93;;;;;;;;;;5041360;28;20488;-53
2023/07/20 05:32:30;;;;;;;8.50;4.83;;;;;;;;;;5041939;28;20474;-54
2023/07/20 05:34:59;;;;;;;7.83;5.30;;;;;;;;;;5040386;28;20873;-54
2023/07/20 05:37:26;;;;;;;6.40;4.93;;;;;;;;;;5042780;28;21063;-53
2023/07/20 05:39:53;;;;;;;6.43;4.87;;;;;;;;;;5043375;28;20485;-54
2023/07/20 05:42:20;;;;;;;8.17;5.10;;;;;;;;;;5042485;28;20480;-54
2023/07/20 05:44:49;;;;;;;5.90;4.70;;;;;;;;;;5050051;28;20473;-54
2023/07/20 05:47:17;;;;;;;6.13;5.00;;;;;;;;;;5040669;28;20457;-55
2023/07/20 05:49:44;;;;;;;7.10;5.67;;;;;;;;;;5040189;28;20971;-54
2023/07/20 05:52:12;;;;;;;8.40;6.80;;;;;;;;;;5034462;28;20537;-54
2023/07/20 05:54:40;;;;;;;9.07;5.60;;;;;;;;;;5045658;28;20445;-54
2023/07/20 05:57:07;;;;;;;5.87;4.90;;;;;;;;;;5030382;28;20494;-54
2023/07/20 05:59:34;;;;;;;7.57;5.20;;;;;;;;;;5030473;28;20565;-54
2023/07/20 06:02:01;;;;;;;8.67;5.57;;;;;;;;;;5045866;28;20532;-54
2023/07/20 06:04:29;;;;;;;7.00;5.20;;;;;;;;;;5048097;28;20528;-55
2023/07/20 06:06:56;;;;;;;5.53;4.70;;;;;;;;;;5032949;28;20549;-54
2023/07/20 06:09:24;;;;;;;7.33;5.00;;;;;;;;;;5032381;28;20528;-54
2023/07/20 06:11:52;;;;;;;5.20;4.57;;;;;;;;;;5037813;28;20559;-54
2023/07/20 06:14:19;;;;;;;6.13;5.53;;;;;;;;;;5044713;28;20970;-54
2023/07/20 06:16:46;;;;;;;8.50;5.83;;;;;;;;;;5040969;28;20462;-54
2023/07/20 06:19:13;;;;;;;6.80;6.10;;;;;;;;;;5050302;28;20512;-54
2023/07/20 06:21:41;;;;;;;7.33;5.10;;;;;;;;;;5048531;28;20469;-54
2023/07/20 06:24:09;;;;;;;6.43;5.50;;;;;;;;;;5046468;28;20464;-54
2023/07/20 06:26:39;;;;;;;8.60;5.40;;;;;;;;;;5030435;28;20553;-54
2023/07/20 06:29:07;;;;;;;6.53;5.83;;;;;;;;;;5038692;28;20449;-53
2023/07/20 06:31:34;;;;;;;7.33;5.83;;;;;;;;;;5045106;28;20447;-52
2023/07/20 06:34:01;;;;;;;8.13;5.60;;;;;;;;;;5049401;28;20473;-53
2023/07/20 06:36:28;;;;;;;6.87;5.47;;;;;;;;;;5049840;28;20473;-53
2023/07/20 06:38:56;;;;;;;6.07;5.47;;;;;;;;;;5041284;28;20513;-53
2023/07/20 06:41:23;;;;;;;5.37;4.87;;;;;;;;;;5044727;28;20524;-53
2023/07/20 06:43:52;;;;;;;9.17;6.03;;;;;;;;;;5042394;28;20604;-53
2023/07/20 06:46:19;;;;;;;6.90;5.20;;;;;;;;;;5044772;28;20445;-53
2023/07/20 06:48:46;;;;;;;6.87;6.27;;;;;;;;;;5048263;28;20524;-53
2023/07/20 06:51:14;;;;;;;6.00;5.13;;;;;;;;;;5047927;28;20473;-52
2023/07/20 06:53:41;;;;;;;9.20;5.77;;;;;;;;;;5048685;28;20481;-52
2023/07/20 06:56:08;;;;;;;5.97;5.37;;;;;;;;;;5049886;28;20888;-53
2023/07/20 06:58:35;;;;;;;7.43;5.80;;;;;;;;;;5046376;28;20557;-53
2023/07/20 07:01:07;;;;;;;7.90;5.60;;;;;;;;;;5036241;28;20474;-53
2023/07/20 07:03:34;;;;;;;7.87;6.13;;;;;;;;;;5041365;28;20445;-53
2023/07/20 07:06:02;;;;;;;6.27;5.23;;;;;;;;;;5039101;28;20469;-53
2023/07/20 07:08:29;;;;;;;6.33;5.60;;;;;;;;;;5050023;28;20505;-53
2023/07/20 07:10:56;;;;;;;8.00;4.83;;;;;;;;;;5050417;28;20939;-53
2023/07/20 07:13:24;;;;;;;6.20;4.30;;;;;;;;;;5049726;28;20887;-52
2023/07/20 07:15:52;;;;;;;5.20;4.70;;;;;;;;;;5049683;28;20962;-53
2023/07/20 07:18:21;;;;;;;5.37;4.73;;;;;;;;;;5050483;28;20472;-52
2023/07/20 07:20:54;;;;;;;6.60;5.00;;;;;;;;;;5050128;28;20441;-53
2023/07/20 07:23:22;;;;;;;5.27;4.77;;;;;;;;;;5049926;28;20473;-53
2023/07/20 07:25:49;;;;;;;5.60;5.07;;;;;;;;;;5050271;28;20486;-53
2023/07/20 07:28:17;;;;;;;7.83;5.50;;;;;;;;;;5048210;28;20468;-52
2023/07/20 07:30:44;;;;;;;7.10;5.20;;;;;;;;;;5048377;28;20882;-52
2023/07/20 07:33:12;;;;;;;6.27;5.20;;;;;;;;;;5049692;28;20993;-53
2023/07/20 07:35:40;;;;;;;6.07;5.47;;;;;;;;;;5049999;28;20433;-53
2023/07/20 07:38:07;;;;;;;7.07;4.67;;;;;;;;;;5053809;28;20546;-53
2023/07/20 07:40:35;;;;;;;8.90;5.50;;;;;;;;;;5048944;28;20441;-53
2023/07/20 07:43:02;;;;;;;5.40;4.90;;;;;;;;;;5053660;28;20506;-53
2023/07/20 07:45:29;;;;;;;6.73;5.20;;;;;;;;;;5053547;28;20916;-53
2023/07/20 07:47:56;;;;;;;8.10;5.60;;;;;;;;;;5053690;28;20540;-53
2023/07/20 07:50:24;;;;;;;7.17;5.37;;;;;;;;;;5053346;28;20528;-53
2023/07/20 07:52:52;;;;;;;6.33;5.40;;;;;;;;;;5052796;28;20516;-53
2023/07/20 07:55:20;;;;;;;6.03;4.60;;;;;;;;;;5053318;28;20469;-53
2023/07/20 07:57:47;;;;;;;11.00;7.77;;;;;;;;;;5053239;28;20453;-53
2023/07/20 08:00:15;;;;;;;10.77;8.13;;;;;;;;;;5053039;28;20476;-53
2023/07/20 08:02:43;;;;;;;5.43;4.40;;;;;;;;;;5053212;28;20797;-52
2023/07/20 08:05:10;;;;;;;5.30;4.20;;;;;;;;;;5053649;28;20492;-52
2023/07/20 08:07:37;;;;;;;6.37;5.23;;;;;;;;;;5053391;28;20469;-52
2023/07/20 08:10:07;;;;;;;5.50;4.70;;;;;;;;;;5053530;28;20682;-52
2023/07/20 08:12:34;;;;;;;5.97;4.20;;;;;;;;;;5052733;28;20520;-52
2023/07/20 08:15:01;;;;;;;6.03;4.20;;;;;;;;;;5053425;28;20504;-52
2023/07/20 08:17:28;;;;;;;4.40;4.00;;;;;;;;;;5052829;28;20488;-53
2023/07/20 08:19:56;;;;;;;5.53;3.97;;;;;;;;;;5052846;28;20484;-53
2023/07/20 08:22:23;;;;;;;4.00;3.60;;;;;;;;;;5064662;28;20527;-53
2023/07/20 08:24:50;;;;;;;5.57;4.10;;;;;;;;;;5055647;28;20556;-52
2023/07/20 08:27:19;;;;;;;4.53;3.33;;;;;;;;;;5054492;28;20893;-52
2023/07/20 08:29:46;;;;;;;4.53;3.83;;;;;;;;;;5054190;28;20461;-52
2023/07/20 08:32:14;;;;;;;4.90;3.93;;;;;;;;;;5050873;28;21016;-53
2023/07/20 08:34:41;;;;;;;5.10;4.00;;;;;;;;;;5052077;28;20744;-53
2023/07/20 08:37:09;;;;;;;5.77;3.93;;;;;;;;;;5049753;28;20505;-53
2023/07/20 08:39:37;;;;;;;4.40;3.97;;;;;;;;;;5047648;28;20477;-53
2023/07/20 08:42:06;;;;;;;4.63;3.33;;;;;;;;;;5049852;28;20457;-53
2023/07/20 08:44:35;;;;;;;4.13;3.30;;;;;;;;;;5051949;28;20836;-52
2023/07/20 08:47:03;;;;;;;4.73;3.33;;;;;;;;;;5043032;28;20461;-52
2023/07/20 08:49:31;;;;;;;4.43;3.10;;;;;;;;;;5051814;28;20864;-53
2023/07/20 08:51:59;;;;;;;3.93;3.20;;;;;;;;;;5049196;28;20473;-52
2023/07/20 08:54:29;;;;;;;4.20;3.23;;;;;;;;;;5047807;28;20543;-53
2023/07/20 08:56:58;;;;;;;4.40;3.17;;;;;;;;;;5051283;28;20474;-52
2023/07/20 08:59:26;;;;;;;5.20;3.27;;;;;;;;;;5047714;28;20586;-52
2023/07/20 09:01:55;;;;;;;5.43;3.87;;;;;;;;;;5051243;28;20488;-53
2023/07/20 09:04:22;;;;;;;5.30;3.00;;;;;;;;;;5051714;28;20508;-53
2023/07/20 09:06:50;;;;;;;3.43;3.00;;;;;;;;;;5068136;22;20560;-56
2023/07/20 09:09:18;;;;;;;3.37;2.53;;;;;;;;;;5029870;28;20485;-56
2023/07/20 09:11:45;;;;;;;4.50;3.60;;;;;;;;;;5031928;28;20622;-55
2023/07/20 09:14:12;;;;;;;5.40;3.73;;;;;;;;;;5032145;28;20525;-56
2023/07/20 09:16:49;;;;;;;7.27;3.90;;;;;;;;;;5031412;28;20435;-55
2023/07/20 09:19:18;;;;;;;4.10;3.63;;;;;;;;;;5029157;28;20478;-55
2023/07/20 09:21:47;;;;;;;6.07;3.47;;;;;;;;;;5031748;28;20474;-55
2023/07/20 09:24:14;;;;;;;6.97;4.03;;;;;;;;;;5030189;28;20461;-56
2023/07/20 09:26:45;;;;;;;5.57;2.90;;;;;;;;;;5034086;28;20840;-56
2023/07/20 09:29:12;;;;;;;5.90;3.97;;;;;;;;;;5037506;28;20482;-57
2023/07/20 09:31:40;;;;;;;5.40;4.23;;;;;;;;;;5034048;28;20560;-56
2023/07/20 09:34:08;;;;;;;4.67;3.93;;;;;;;;;;5048309;28;20495;-55
2023/07/20 09:36:37;;;;;;;4.43;3.90;;;;;;;;;;5040994;28;20525;-56
2023/07/20 09:39:05;;;;;;;4.73;3.50;;;;;;;;;;5030499;28;20486;-55
2023/07/20 09:41:42;;;;;;;4.80;3.83;;;;;;;;;;5040564;28;20445;-55
2023/07/20 09:44:10;;;;;;;8.00;5.10;;;;;;;;;;5019814;28;20608;-56
2023/07/20 09:46:45;;;;;;;6.67;4.00;;;;;;;;;;5042106;28;20439;-56
2023/07/20 09:49:12;;;;;;;5.97;4.90;;;;;;;;;;5029413;28;20481;-56
2023/07/20 09:51:42;;;;;;;4.60;4.10;;;;;;;;;;5029997;28;20788;-56
2023/07/20 09:54:09;;;;;;;4.67;4.17;;;;;;;;;;5029516;28;20446;-55
2023/07/20 09:56:37;;;;;;;5.03;4.53;;;;;;;;;;5037688;28;20459;-55
2023/07/20 09:59:05;;;;;;;5.23;4.23;;;;;;;;;;5042537;28;20500;-55
2023/07/20 10:01:34;;;;;;;6.07;4.37;;;;;;;;;;5050337;28;20480;-56
2023/07/20 10:04:04;;;;;;;5.20;4.10;;;;;;;;;;5049858;28;20445;-55
2023/07/20 10:06:34;;;;;;;5.10;4.33;;;;;;;;;;5032934;28;20485;-55
2023/07/20 10:09:03;;;;;;;4.00;3.60;;;;;;;;;;5030935;28;20466;-55
2023/07/20 10:11:31;;;;;;;6.27;3.93;;;;;;;;;;5030684;28;20624;-56
2023/07/20 10:14:00;;;;;;;4.50;3.40;;;;;;;;;;5029547;28;20525;-56
2023/07/20 10:16:29;;;;;;;6.57;3.80;;;;;;;;;;5047507;28;20457;-55
2023/07/20 10:19:01;;;;;;;3.97;3.37;;;;;;;;;;5048118;28;20480;-55
2023/07/20 10:21:29;;;;;;;3.93;3.50;;;;;;;;;;5044585;28;20537;-55
2023/07/20 10:23:57;;;;;;;5.60;3.60;;;;;;;;;;5046248;28;20528;-56
2023/07/20 10:26:26;;;;;;;9.27;3.40;;;;;;;;;;5042121;28;20469;-55
2023/07/20 10:28:53;;;;;;;4.90;3.30;;;;;;;;;;5033496;28;20525;-55
2023/07/20 10:31:21;;;;;;;2.90;2.60;;;;;;;;;;5030136;28;20535;-56
2023/07/20 10:33:50;;;;;;;4.27;3.67;;;;;;;;;;5030194;28;20473;-56
2023/07/20 10:36:17;;;;;;;3.87;3.10;;;;;;;;;;5035587;28;20442;-56
2023/07/20 10:38:54;;;;;;;4.20;3.80;;;;;;;;;;5033745;28;20458;-56
2023/07/20 10:41:24;;;;;;;4.30;3.50;;;;;;;;;;5030175;28;20440;-55
2023/07/20 10:43:53;;;;;;;6.37;3.80;;;;;;;;;;5029794;28;20439;-55
2023/07/20 10:46:40;;;;;;;4.60;3.27;;;;;;;;;;5030209;28;21007;-55
2023/07/20 10:49:09;;;;;;;3.17;2.60;;;;;;;;;;5029019;28;20973;-55
2023/07/20 10:51:40;;;;;;;7.33;3.80;;;;;;;;;;5037202;28;20437;-55
2023/07/20 10:54:09;;;;;;;3.40;3.10;;;;;;;;;;5026157;28;20460;-55
2023/07/20 10:56:36;;;;;;;5.67;3.57;;;;;;;;;;5037841;28;20510;-54
2023/07/20 10:59:19;;;;;;;5.10;3.50;;;;;;;;;;5038993;28;20473;-54
2023/07/20 11:01:47;;;;;;;3.83;2.97;;;;;;;;;;5032390;28;20442;-54
2023/07/20 11:04:14;;;;;;;5.53;3.30;;;;;;;;;;5026578;28;20450;-55
2023/07/20 11:06:44;;;;;;;4.40;3.30;;;;;;;;;;5035437;28;20465;-55
2023/07/20 11:09:14;;;;;;;4.73;3.27;;;;;;;;;;5034297;28;20445;-54
2023/07/20 11:11:42;;;;;;;3.50;3.13;;;;;;;;;;5036907;28;20489;-55
2023/07/20 11:14:11;;;;;;;4.90;3.33;;;;;;;;;;5038448;28;20441;-54
2023/07/20 11:16:39;;;;;;;5.20;3.30;;;;;;;;;;5036561;28;20924;-54
2023/07/20 11:19:08;;;;;;;3.87;2.77;;;;;;;;;;5047080;28;20477;-54
2023/07/20 11:21:39;;;;;;;5.00;3.57;;;;;;;;;;5043749;28;20501;-54
2023/07/20 11:24:07;;;;;;;4.27;3.53;;;;;;;;;;5043976;28;20438;-55
2023/07/20 11:26:47;;;;;;;4.13;2.70;;;;;;;;;;5038525;28;20469;-55
2023/07/20 11:29:17;;;;;;;4.03;3.23;;;;;;;;;;5034675;28;20824;-54
2023/07/20 11:31:44;;;;;;;6.20;3.60;;;;;;;;;;5031822;28;20537;-54
2023/07/20 11:34:13;;;;;;;4.07;3.30;;;;;;;;;;5037788;28;20484;-54
2023/07/20 11:36:42;;;;;;;5.47;4.00;;;;;;;;;;5033443;28;20477;-54
2023/07/20 11:39:09;;;;;;;4.30;3.40;;;;;;;;;;5034675;28;20452;-54
2023/07/20 11:41:36;;;;;;;5.90;3.67;;;;;;;;;;5034214;28;20509;-54
2023/07/20 11:44:04;;;;;;;5.37;3.57;;;;;;;;;;5032914;28;20528;-55
2023/07/20 11:46:33;;;;;;;4.60;3.50;;;;;;;;;;5032424;28;20463;-55
2023/07/20 11:49:00;;;;;;;4.73;3.73;;;;;;;;;;5033263;28;20442;-55
2023/07/20 11:51:29;;;;;;;5.37;3.27;;;;;;;;;;5032019;28;20465;-55
2023/07/20 11:53:57;;;;;;;4.00;3.30;;;;;;;;;;5033030;28;20450;-55
2023/07/20 11:56:24;;;;;;;4.60;3.67;;;;;;;;;;5033429;28;20535;-55
2023/07/20 11:58:51;;;;;;;3.87;3.00;;;;;;;;;;5033688;28;20446;-55
2023/07/20 12:01:20;;;;;;;4.90;3.37;;;;;;;;;;5033553;28;20571;-55
2023/07/20 12:03:49;;;;;;;3.80;3.27;;;;;;;;;;5033461;28;20446;-55
2023/07/20 12:06:17;;;;;;;5.80;3.10;;;;;;;;;;5033565;28;20449;-55
2023/07/20 12:08:45;;;;;;;4.40;3.47;;;;;;;;;;5031681;28;20569;-55
2023/07/20 12:11:12;;;;;;;4.00;3.13;;;;;;;;;;5032457;28;20474;-55
2023/07/20 12:13:40;;;;;;;3.30;3.00;;;;;;;;;;5031874;28;20816;-55
2023/07/20 12:16:10;;;;;;;5.40;3.20;;;;;;;;;;5032261;28;20924;-55
2023/07/20 12:18:37;;;;;;;4.83;3.30;;;;;;;;;;5031062;28;21006;-55
2023/07/20 12:21:07;;;;;;;4.60;3.00;;;;;;;;;;5031628;28;20515;-56
2023/07/20 12:23:38;;;;;;;4.13;2.87;;;;;;;;;;5031976;28;20819;-56
2023/07/20 12:26:09;;;;;;;3.43;2.67;;;;;;;;;;5033014;28;20878;-55
2023/07/20 12:28:37;;;;;;;6.77;3.33;;;;;;;;;;5033230;28;20509;-55
2023/07/20 12:31:04;;;;;;;4.40;3.20;;;;;;;;;;5033654;28;20533;-55
2023/07/20 12:33:32;;;;;;;4.97;2.97;;;;;;;;;;5032977;28;20446;-55
2023/07/20 12:35:59;;;;;;;3.73;3.17;;;;;;;;;;5033519;28;20443;-55
2023/07/20 12:38:28;;;;;;;4.20;3.57;;;;;;;;;;5034449;28;20473;-55
2023/07/20 12:40:56;;;;;;;8.33;3.57;;;;;;;;;;5033374;28;20916;-56
2023/07/20 12:43:23;;;;;;;4.93;3.20;;;;;;;;;;5032424;28;20967;-55
2023/07/20 12:45:50;;;;;;;4.23;3.37;;;;;;;;;;5033740;28;20504;-56
2023/07/20 12:48:17;;;;;;;3.87;2.73;;;;;;;;;;5032771;28;20493;-55
2023/07/20 12:50:45;;;;;;;6.17;3.80;;;;;;;;;;5032208;28;20521;-55
2023/07/20 12:53:12;;;;;;;4.37;3.30;;;;;;;;;;5032221;28;20537;-55
2023/07/20 12:55:41;;;;;;;4.63;3.00;;;;;;;;;;5032396;28;20513;-55
2023/07/20 12:58:08;;;;;;;4.03;3.50;;;;;;;;;;5033055;28;20469;-55
2023/07/20 13:00:36;;;;;;;4.50;3.50;;;;;;;;;;5032905;28;20506;-55
2023/07/20 13:03:04;;;;;;;6.20;3.80;;;;;;;;;;5032755;28;20450;-55
2023/07/20 13:05:32;;;;;;;3.27;2.97;;;;;;;;;;5033424;28;20537;-55
2023/07/20 13:08:00;;;;;;;5.50;3.60;;;;;;;;;;5032822;28;20474;-55
2023/07/20 13:10:27;;;;;;;4.37;3.10;;;;;;;;;;5032766;28;20477;-55
2023/07/20 13:12:56;;;;;;;4.17;3.30;;;;;;;;;;5032906;28;20531;-55
2023/07/20 13:15:26;;;;;;;4.67;3.70;;;;;;;;;;5032614;28;20446;-54
2023/07/20 13:17:53;;;;;;;5.00;3.43;;;;;;;;;;5032205;28;20930;-55
2023/07/20 13:20:20;;;;;;;5.20;3.80;;;;;;;;;;5032462;28;20568;-55
2023/07/20 13:22:47;;;;;;;6.33;3.33;;;;;;;;;;5032530;28;20889;-56
2023/07/20 13:25:15;;;;;;;3.93;2.80;;;;;;;;;;5032345;28;20503;-56
2023/07/20 13:27:42;;;;;;;4.30;3.00;;;;;;;;;;5032088;28;20573;-57
2023/07/20 13:30:16;;;;;;;6.23;3.57;;;;;;;;;;5032654;28;20501;-56
2023/07/20 13:32:43;;;;;;;3.83;2.60;;;;;;;;;;5032183;28;20442;-57
2023/07/20 13:35:10;;;;;;;7.10;3.80;;;;;;;;;;5031578;28;20446;-57
2023/07/20 13:37:38;;;;;;;5.13;3.20;;;;;;;;;;5032134;28;20497;-56
2023/07/20 13:40:06;;;;;;;6.00;3.90;;;;;;;;;;5032120;28;20474;-56
2023/07/20 13:42:33;;;;;;;4.73;3.30;;;;;;;;;;5032086;28;20447;-57
2023/07/20 13:45:00;;;;;;;3.67;2.90;;;;;;;;;;5032297;28;20924;-56
2023/07/20 13:47:29;;;;;;;5.07;3.57;;;;;;;;;;5031858;28;20469;-57
2023/07/20 13:49:56;;;;;;;3.63;3.10;;;;;;;;;;5032532;28;20477;-57
2023/07/20 13:52:24;;;;;;;4.20;3.57;;;;;;;;;;5030783;28;20443;-57
2023/07/20 13:54:51;;;;;;;3.63;3.17;;;;;;;;;;5031735;28;20525;-57
2023/07/20 13:57:18;;;;;;;3.10;2.70;;;;;;;;;;5031885;28;20494;-58
2023/07/20 13:59:46;;;;;;;3.20;2.63;;;;;;;;;;5031872;28;20470;-58
2023/07/20 14:02:13;;;;;;;3.33;2.40;;;;;;;;;;5031389;28;20924;-59
2023/07/20 14:04:42;;;;;;;3.90;3.13;;;;;;;;;;5031521;28;20476;-56
2023/07/20 14:07:10;;;;;;;4.47;3.13;;;;;;;;;;5031403;28;20476;-57
2023/07/20 14:09:38;;;;;;;3.57;2.93;;;;;;;;;;5031942;28;20948;-57
2023/07/20 14:29:26;;;;;;;4.47;3.20;;;;;;;;;;5103299;27;20646;-54
2023/07/20 14:31:53;;;;;;;4.63;3.10;;;;;;;;;;5067326;28;20535;-54
2023/07/20 14:34:21;;;;;;;4.97;2.90;;;;;;;;;;5066591;28;20531;-56
2023/07/20 14:36:48;;;;;;;4.30;3.00;;;;;;;;;;5067163;28;20510;-55
2023/07/20 14:39:15;;;;;;;4.77;3.17;;;;;;;;;;5066846;28;20543;-56
2023/07/20 14:41:43;;;;;;;4.20;3.10;;;;;;;;;;5101667;22;20582;-56
2023/07/20 14:44:10;;;;;;;5.53;3.20;;;;;;;;;;5043050;28;20532;-55
2023/07/20 14:46:39;;;;;;;4.97;3.43;;;;;;;;;;5046887;28;20937;-56
2023/07/20 14:49:06;;;;;;;5.90;3.00;;;;;;;;;;5045503;28;20828;-56
2023/07/20 14:51:35;;;;;;;5.13;3.20;;;;;;;;;;5032549;28;20607;-56
2023/07/20 14:54:03;;;;;;;3.80;2.87;;;;;;;;;;5034242;28;20527;-56
2023/07/20 14:56:30;;;;;;;4.93;3.30;;;;;;;;;;5041967;28;20521;-56
2023/07/20 14:58:58;;;;;;;6.60;3.10;;;;;;;;;;5045447;28;20560;-55
2023/07/20 15:01:25;;;;;;;4.97;3.30;;;;;;;;;;5046263;28;20472;-56
2023/07/20 15:03:54;;;;;;;4.90;3.73;;;;;;;;;;5046414;28;20524;-56
2023/07/20 15:06:21;;;;;;;5.90;3.03;;;;;;;;;;5046530;28;20573;-55